createdAt,value
2022-10-01T00:02:35.000Z,27.7
2022-10-01T00:07:34.000Z,28.66
2022-10-01T00:12:35.000Z,27.15
2022-10-01T00:17:35.000Z,28.38
2022-10-01T00:22:34.000Z,28.66
2022-10-01T00:27:34.000Z,29.02
2022-10-01T00:32:34.000Z,29.32
2022-10-01T00:37:34.000Z,29.1
2022-10-01T00:42:34.000Z,28.45
2022-10-01T00:47:35.000Z,28.45
2022-10-01T00:52:35.000Z,28.72
2022-10-01T00:57:35.000Z,28.66
2022-10-01T01:02:35.000Z,29.52
2022-10-01T01:07:35.000Z,28.63
2022-10-01T01:12:35.000Z,30.01
2022-10-01T01:17:34.000Z,32.71
2022-10-01T01:22:34.000Z,31.4
2022-10-01T01:27:35.000Z,31.18
2022-10-01T01:32:34.000Z,31.97
2022-10-01T01:37:35.000Z,31.59
2022-10-01T01:42:35.000Z,31.35
2022-10-01T01:47:35.000Z,33.14
2022-10-01T01:52:35.000Z,31.45
2022-10-01T01:57:35.000Z,31.32
2022-10-01T02:02:34.000Z,31.32
2022-10-01T02:07:35.000Z,32.09
2022-10-01T02:12:35.000Z,31.36
2022-10-01T02:17:34.000Z,30.54
2022-10-01T02:22:34.000Z,31.72
2022-10-01T02:27:35.000Z,30.84
2022-10-01T02:32:35.000Z,31.36
2022-10-01T02:37:34.000Z,31.62
2022-10-01T02:42:34.000Z,31.54
2022-10-01T02:47:35.000Z,31.44
2022-10-01T02:52:35.000Z,31.7
2022-10-01T02:57:35.000Z,30.93
2022-10-01T03:02:34.000Z,31.93
2022-10-01T03:12:35.000Z,32.27
2022-10-01T03:17:34.000Z,32.25
2022-10-01T03:27:34.000Z,32.22
2022-10-01T03:32:35.000Z,30.99
2022-10-01T03:37:35.000Z,32.25
2022-10-01T03:42:34.000Z,32.53
2022-10-01T03:47:35.000Z,32.39
2022-10-01T03:52:35.000Z,32.39
2022-10-01T03:57:34.000Z,32.3
2022-10-01T04:02:35.000Z,32.4
2022-10-01T04:07:35.000Z,32.61
2022-10-01T04:12:34.000Z,32.37
2022-10-01T04:17:34.000Z,31.49
2022-10-01T04:22:35.000Z,30.78
2022-10-01T04:27:34.000Z,32.29
2022-10-01T04:32:34.000Z,31.48
2022-10-01T04:37:34.000Z,32.44
2022-10-01T04:42:35.000Z,31.73
2022-10-01T04:47:35.000Z,31.42
2022-10-01T04:52:35.000Z,31.1
2022-10-01T04:57:35.000Z,32.32
2022-10-01T05:02:35.000Z,31.79
2022-10-01T05:07:34.000Z,30.82
2022-10-01T05:12:34.000Z,30.82
2022-10-01T05:17:34.000Z,30.85
2022-10-01T05:22:35.000Z,31.35
2022-10-01T05:27:34.000Z,32.53
2022-10-01T05:32:34.000Z,31.63
2022-10-01T05:37:35.000Z,32.15
2022-10-01T05:42:35.000Z,31.77
2022-10-01T05:47:35.000Z,31.29
2022-10-01T05:52:35.000Z,29.47
2022-10-01T05:57:34.000Z,28.55
2022-10-01T06:02:35.000Z,29.61
2022-10-01T06:07:35.000Z,29.51
2022-10-01T06:12:35.000Z,30.09
2022-10-01T06:22:34.000Z,30.76
2022-10-01T06:27:34.000Z,30.76
2022-10-01T06:32:35.000Z,31.59
2022-10-01T06:37:35.000Z,29.99
2022-10-01T06:42:34.000Z,31.15
2022-10-01T06:47:34.000Z,30.28
2022-10-01T06:52:34.000Z,30.83
2022-10-01T07:02:35.000Z,31.09
2022-10-01T07:07:39.000Z,31.29
2022-10-01T07:12:35.000Z,30.25
2022-10-01T07:17:35.000Z,30.25
2022-10-01T07:22:35.000Z,28.96
2022-10-01T07:27:34.000Z,29.13
2022-10-01T07:32:35.000Z,28.16
2022-10-01T07:37:35.000Z,29.21
2022-10-01T07:42:35.000Z,28.7
2022-10-01T07:47:35.000Z,28.43
2022-10-01T07:52:35.000Z,28.64
2022-10-01T07:57:34.000Z,28.41
2022-10-01T08:02:35.000Z,27.64
2022-10-01T08:07:34.000Z,28.07
2022-10-01T08:12:35.000Z,28.1
2022-10-01T08:17:39.000Z,27.18
2022-10-01T08:22:34.000Z,27.05
2022-10-01T08:27:35.000Z,26.25
2022-10-01T08:32:35.000Z,26.25
2022-10-01T08:37:35.000Z,27.28
2022-10-01T08:42:35.000Z,26.93
2022-10-01T08:47:35.000Z,31.07
2022-10-01T08:52:34.000Z,29.62
2022-10-01T08:57:35.000Z,29.82
2022-10-01T09:02:35.000Z,30.67
2022-10-01T09:07:34.000Z,30.75
2022-10-01T09:12:35.000Z,32.31
2022-10-01T09:17:35.000Z,32.07
2022-10-01T09:22:34.000Z,32.92
2022-10-01T09:27:35.000Z,33.51
2022-10-01T09:32:34.000Z,33.22
2022-10-01T09:37:34.000Z,32.42
2022-10-01T09:42:35.000Z,32.79
2022-10-01T09:47:35.000Z,32.79
2022-10-01T09:52:35.000Z,32.78
2022-10-01T09:57:35.000Z,31.09
2022-10-01T10:02:35.000Z,30.92
2022-10-01T10:07:34.000Z,31.39
2022-10-01T10:12:34.000Z,31.32
2022-10-01T10:17:35.000Z,29.68
2022-10-01T10:22:34.000Z,30.06
2022-10-01T10:27:34.000Z,30.71
2022-10-01T10:32:34.000Z,29.55
2022-10-01T10:37:35.000Z,29.93
2022-10-01T10:42:35.000Z,30.49
2022-10-01T10:47:34.000Z,30.72
2022-10-01T10:52:35.000Z,30.77
2022-10-01T10:57:34.000Z,29.29
2022-10-01T11:02:35.000Z,29.29
2022-10-01T11:07:35.000Z,26.88
2022-10-01T11:12:34.000Z,26.91
2022-10-01T11:17:35.000Z,29.61
2022-10-01T11:22:35.000Z,34.37
2022-10-01T11:27:35.000Z,35.67
2022-10-01T11:32:35.000Z,34.42
2022-10-01T11:37:35.000Z,32.52
2022-10-01T11:42:34.000Z,30.78
2022-10-01T11:47:34.000Z,29.85
2022-10-01T11:52:34.000Z,30.13
2022-10-01T11:57:34.000Z,30.82
2022-10-01T12:02:35.000Z,32.46
2022-10-01T12:07:35.000Z,30.9
2022-10-01T12:12:35.000Z,31.22
2022-10-01T12:17:35.000Z,30.77
2022-10-01T12:22:35.000Z,30.77
2022-10-01T12:27:35.000Z,31.63
2022-10-01T12:32:34.000Z,32.13
2022-10-01T12:37:35.000Z,31.08
2022-10-01T12:42:34.000Z,32.15
2022-10-01T12:47:34.000Z,32.53
2022-10-01T12:52:34.000Z,33.16
2022-10-01T12:57:34.000Z,34.19
2022-10-01T13:02:34.000Z,35.34
2022-10-01T13:07:35.000Z,38.32
2022-10-01T13:12:35.000Z,39.33
2022-10-01T13:17:35.000Z,37.45
2022-10-01T13:22:34.000Z,36.88
2022-10-01T13:27:34.000Z,36.46
2022-10-01T13:32:35.000Z,36.29
2022-10-01T13:37:34.000Z,36.29
2022-10-01T13:42:34.000Z,36.55
2022-10-01T13:47:34.000Z,36.94
2022-10-01T13:52:35.000Z,36.19
2022-10-01T13:57:34.000Z,36.19
2022-10-01T14:02:35.000Z,36.3
2022-10-01T14:07:34.000Z,38.96
2022-10-01T14:12:34.000Z,38.24
2022-10-01T14:17:35.000Z,37.34
2022-10-01T14:22:35.000Z,37.36
2022-10-01T14:27:35.000Z,37.19
2022-10-01T14:32:35.000Z,35.44
2022-10-01T14:37:34.000Z,35.95
2022-10-01T14:42:35.000Z,36.44
2022-10-01T14:47:35.000Z,37.51
2022-10-01T14:52:34.000Z,37.51
2022-10-01T14:57:35.000Z,38.3
2022-10-01T15:02:35.000Z,39.09
2022-10-01T15:07:35.000Z,38.11
2022-10-01T15:12:34.000Z,39.88
2022-10-01T15:17:35.000Z,40.2
2022-10-01T15:22:35.000Z,39.53
2022-10-01T15:27:34.000Z,42.46
2022-10-01T15:32:35.000Z,43.58
2022-10-01T15:37:34.000Z,44.18
2022-10-01T15:42:35.000Z,51.27
2022-10-01T15:47:35.000Z,51.9
2022-10-01T15:52:35.000Z,50.14
2022-10-01T15:57:35.000Z,48.59
2022-10-01T16:02:35.000Z,49.88
2022-10-01T16:07:34.000Z,49.88
2022-10-01T16:12:35.000Z,50.34
2022-10-01T16:17:34.000Z,51.31
2022-10-01T16:22:35.000Z,74.69
2022-10-01T16:27:35.000Z,59.66
2022-10-01T16:32:34.000Z,55.65
2022-10-01T16:37:35.000Z,52.78
2022-10-01T16:42:35.000Z,51.44
2022-10-01T16:47:35.000Z,50.54
2022-10-01T16:52:35.000Z,44.85
2022-10-01T16:57:34.000Z,46.55
2022-10-01T17:02:35.000Z,45.09
2022-10-01T17:07:35.000Z,45.77
2022-10-01T17:12:35.000Z,43.52
2022-10-01T17:17:35.000Z,43.52
2022-10-01T17:22:35.000Z,42.29
2022-10-01T17:27:34.000Z,41.67
2022-10-01T17:32:35.000Z,41.21
2022-10-01T17:37:35.000Z,40.88
2022-10-01T17:42:35.000Z,40.52
2022-10-01T17:47:35.000Z,40.91
2022-10-01T17:52:35.000Z,40.02
2022-10-01T18:02:52.000Z,40.04
2022-10-01T18:07:34.000Z,39.52
2022-10-01T18:12:35.000Z,40.16
2022-10-01T18:17:36.000Z,38.11
2022-10-01T18:22:35.000Z,37.05
2022-10-01T18:27:35.000Z,35.58
2022-10-01T18:32:34.000Z,33.5
2022-10-01T18:37:35.000Z,32.6
2022-10-01T18:42:34.000Z,31.2
2022-10-01T18:47:34.000Z,30.02
2022-10-01T18:52:34.000Z,29.15
2022-10-01T18:57:35.000Z,29.15
2022-10-01T19:02:34.000Z,29.17
2022-10-01T19:07:34.000Z,28.61
2022-10-01T19:12:34.000Z,27.34
2022-10-01T19:17:35.000Z,28.22
2022-10-01T19:22:34.000Z,27.26
2022-10-01T19:27:35.000Z,27.7
2022-10-01T19:32:35.000Z,27.47
2022-10-01T19:37:35.000Z,19.57
2022-10-01T19:42:35.000Z,18.26
2022-10-01T19:47:35.000Z,19.41
2022-10-01T19:52:35.000Z,19.69
2022-10-01T19:57:34.000Z,18.19
2022-10-01T20:02:34.000Z,19.99
2022-10-01T20:07:34.000Z,19.34
2022-10-01T20:12:34.000Z,19.34
2022-10-01T20:17:35.000Z,20.64
2022-10-01T20:22:35.000Z,19.32
2022-10-01T20:27:34.000Z,19.3
2022-10-01T20:32:35.000Z,20.62
2022-10-01T20:37:34.000Z,19.81
2022-10-01T20:42:35.000Z,19.05
2022-10-01T20:47:35.000Z,18.77
2022-10-01T20:52:35.000Z,17.89
2022-10-01T20:57:34.000Z,19.82
2022-10-01T21:02:35.000Z,19.72
2022-10-01T21:07:35.000Z,18.12
2022-10-01T21:12:35.000Z,17.14
2022-10-01T21:17:34.000Z,16.68
2022-10-01T21:22:35.000Z,18.35
2022-10-01T21:27:34.000Z,18.35
2022-10-01T21:32:35.000Z,17.71
2022-10-01T21:37:35.000Z,15.67
2022-10-01T21:42:34.000Z,14.2
2022-10-01T21:47:35.000Z,12.97
2022-10-01T21:52:35.000Z,12.23
2022-10-01T21:57:35.000Z,11.58
2022-10-01T22:02:35.000Z,11.28
2022-10-01T22:07:34.000Z,11.86
2022-10-01T22:12:34.000Z,12.59
2022-10-01T22:17:35.000Z,12.43
2022-10-01T22:22:35.000Z,14.06
2022-10-01T22:27:35.000Z,13.48
2022-10-01T22:32:34.000Z,14.02
2022-10-01T22:37:34.000Z,13.86
2022-10-01T22:42:35.000Z,13.86
2022-10-01T22:47:35.000Z,13.97
2022-10-01T22:52:35.000Z,14.49
2022-10-01T22:57:35.000Z,15.17
2022-10-01T23:02:35.000Z,16.29
2022-10-01T23:07:35.000Z,15.96
2022-10-01T23:12:35.000Z,16.64
2022-10-01T23:17:35.000Z,15.81
2022-10-01T23:22:34.000Z,15.69
2022-10-01T23:27:35.000Z,15.77
2022-10-01T23:32:35.000Z,14.51
2022-10-01T23:37:34.000Z,15.25
2022-10-01T23:42:35.000Z,14.58
2022-10-01T23:47:34.000Z,14.16
2022-10-01T23:52:35.000Z,13.59
2022-10-01T23:57:35.000Z,13.59
